sensor_id;sensor_type;location;lat;lon;timestamp;temperature;humidity
29345;DHT22;16339;48.748;2.222;2024-03-22T00:07:56;16.30;99.90
29345;DHT22;16339;48.748;2.222;2024-03-22T00:13:29;16.30;99.90
29345;DHT22;16339;48.748;2.222;2024-03-22T00:16:45;16.30;99.90
29345;DHT22;16339;48.748;2.222;2024-03-22T00:19:22;16.30;99.90
29345;DHT22;16339;48.748;2.222;2024-03-22T00:27:43;16.10;99.90
29345;DHT22;16339;48.748;2.222;2024-03-22T00:36:33;16.00;99.90
29345;DHT22;16339;48.748;2.222;2024-03-22T00:39:08;15.90;99.90
29345;DHT22;16339;48.748;2.222;2024-03-22T00:41:39;15.90;99.90
29345;DHT22;16339;48.748;2.222;2024-03-22T00:44:28;15.80;99.90
29345;DHT22;16339;48.748;2.222;2024-03-22T00:47:00;15.80;99.90
29345;DHT22;16339;48.748;2.222;2024-03-22T00:49:28;15.80;99.90
29345;DHT22;16339;48.748;2.222;2024-03-22T00:54:39;15.80;99.90
29345;DHT22;16339;48.748;2.222;2024-03-22T00:59:55;15.80;99.90
29345;DHT22;16339;48.748;2.222;2024-03-22T01:02:27;15.80;99.90
29345;DHT22;16339;48.748;2.222;2024-03-22T01:05:02;15.80;99.90
29345;DHT22;16339;48.748;2.222;2024-03-22T01:08:00;15.80;99.90
29345;DHT22;16339;48.748;2.222;2024-03-22T01:13:20;15.80;99.90
29345;DHT22;16339;48.748;2.222;2024-03-22T01:15:49;15.70;99.90
29345;DHT22;16339;48.748;2.222;2024-03-22T01:20:24;15.70;99.90
29345;DHT22;16339;48.748;2.222;2024-03-22T01:24:06;15.60;99.90
29345;DHT22;16339;48.748;2.222;2024-03-22T02:08:24;15.20;99.90
29345;DHT22;16339;48.748;2.222;2024-03-22T03:34:14;14.60;99.90
29345;DHT22;16339;48.748;2.222;2024-03-22T03:36:43;14.50;99.90
29345;DHT22;16339;48.748;2.222;2024-03-22T03:39:10;14.50;99.90
29345;DHT22;16339;48.748;2.222;2024-03-22T03:59:44;14.30;99.90
29345;DHT22;16339;48.748;2.222;2024-03-22T04:05:29;14.20;99.90
29345;DHT22;16339;48.748;2.222;2024-03-22T04:08:02;14.30;99.90
29345;DHT22;16339;48.748;2.222;2024-03-22T04:10:31;14.30;99.90
29345;DHT22;16339;48.748;2.222;2024-03-22T04:12:57;14.20;99.90
29345;DHT22;16339;48.748;2.222;2024-03-22T04:15:26;14.20;99.90
29345;DHT22;16339;48.748;2.222;2024-03-22T04:18:06;14.20;99.90
29345;DHT22;16339;48.748;2.222;2024-03-22T04:53:15;14.00;99.90
29345;DHT22;16339;48.748;2.222;2024-03-22T04:55:42;14.00;99.90
29345;DHT22;16339;48.748;2.222;2024-03-22T05:59:21;13.70;99.90
29345;DHT22;16339;48.748;2.222;2024-03-22T06:02:08;13.70;99.90
29345;DHT22;16339;48.748;2.222;2024-03-22T06:04:51;13.80;99.90
29345;DHT22;16339;48.748;2.222;2024-03-22T06:10:12;13.70;99.90
29345;DHT22;16339;48.748;2.222;2024-03-22T06:12:38;13.80;99.90
29345;DHT22;16339;48.748;2.222;2024-03-22T06:15:07;13.80;99.90
29345;DHT22;16339;48.748;2.222;2024-03-22T06:17:33;13.80;99.90
29345;DHT22;16339;48.748;2.222;2024-03-22T06:19:59;13.80;99.90
29345;DHT22;16339;48.748;2.222;2024-03-22T06:22:25;13.80;99.90
29345;DHT22;16339;48.748;2.222;2024-03-22T06:24:57;13.90;99.90
29345;DHT22;16339;48.748;2.222;2024-03-22T06:27:33;13.90;99.90
29345;DHT22;16339;48.748;2.222;2024-03-22T06:30:01;13.90;99.90
29345;DHT22;16339;48.748;2.222;2024-03-22T06:35:23;13.80;99.90
29345;DHT22;16339;48.748;2.222;2024-03-22T06:37:54;13.80;99.90
29345;DHT22;16339;48.748;2.222;2024-03-22T06:40:20;13.90;99.90
29345;DHT22;16339;48.748;2.222;2024-03-22T06:42:46;13.90;99.90
29345;DHT22;16339;48.748;2.222;2024-03-22T06:45:12;14.00;99.90
29345;DHT22;16339;48.748;2.222;2024-03-22T06:47:37;14.00;99.90
29345;DHT22;16339;48.748;2.222;2024-03-22T06:50:04;14.00;99.90
29345;DHT22;16339;48.748;2.222;2024-03-22T06:52:32;14.10;99.90
29345;DHT22;16339;48.748;2.222;2024-03-22T06:54:58;14.10;99.90
29345;DHT22;16339;48.748;2.222;2024-03-22T06:57:24;14.20;99.90
29345;DHT22;16339;48.748;2.222;2024-03-22T06:59:50;14.20;99.90
29345;DHT22;16339;48.748;2.222;2024-03-22T07:02:16;14.20;99.90
29345;DHT22;16339;48.748;2.222;2024-03-22T07:04:41;14.30;99.90
29345;DHT22;16339;48.748;2.222;2024-03-22T07:07:07;14.30;99.90
29345;DHT22;16339;48.748;2.222;2024-03-22T07:09:36;14.40;99.90
29345;DHT22;16339;48.748;2.222;2024-03-22T07:12:01;14.40;99.90
29345;DHT22;16339;48.748;2.222;2024-03-22T07:14:27;14.50;99.90
29345;DHT22;16339;48.748;2.222;2024-03-22T07:16:53;14.60;99.90
29345;DHT22;16339;48.748;2.222;2024-03-22T07:19:19;14.70;99.90
29345;DHT22;16339;48.748;2.222;2024-03-22T07:21:45;14.70;99.90
29345;DHT22;16339;48.748;2.222;2024-03-22T07:24:11;14.70;99.90
29345;DHT22;16339;48.748;2.222;2024-03-22T07:26:39;14.80;99.90
29345;DHT22;16339;48.748;2.222;2024-03-22T07:29:05;14.90;99.90
29345;DHT22;16339;48.748;2.222;2024-03-22T07:31:31;15.00;99.90
29345;DHT22;16339;48.748;2.222;2024-03-22T07:33:57;15.10;99.90
29345;DHT22;16339;48.748;2.222;2024-03-22T07:36:23;15.10;99.90
29345;DHT22;16339;48.748;2.222;2024-03-22T07:38:49;15.20;99.90
29345;DHT22;16339;48.748;2.222;2024-03-22T07:41:14;15.20;99.90
29345;DHT22;16339;48.748;2.222;2024-03-22T07:43:43;15.30;99.90
29345;DHT22;16339;48.748;2.222;2024-03-22T07:46:09;15.30;99.90
29345;DHT22;16339;48.748;2.222;2024-03-22T07:48:35;15.30;99.90
29345;DHT22;16339;48.748;2.222;2024-03-22T07:51:01;15.30;99.90
29345;DHT22;16339;48.748;2.222;2024-03-22T07:53:27;15.40;99.90
29345;DHT22;16339;48.748;2.222;2024-03-22T07:55:53;15.40;99.90
29345;DHT22;16339;48.748;2.222;2024-03-22T07:58:19;15.50;99.90
29345;DHT22;16339;48.748;2.222;2024-03-22T08:00:48;15.50;99.90
29345;DHT22;16339;48.748;2.222;2024-03-22T08:03:14;15.50;99.90
29345;DHT22;16339;48.748;2.222;2024-03-22T08:05:40;15.60;99.90
29345;DHT22;16339;48.748;2.222;2024-03-22T08:08:06;15.60;99.90
29345;DHT22;16339;48.748;2.222;2024-03-22T08:10:32;15.70;99.90
29345;DHT22;16339;48.748;2.222;2024-03-22T08:12:58;15.80;99.90
29345;DHT22;16339;48.748;2.222;2024-03-22T08:15:24;15.90;99.90
29345;DHT22;16339;48.748;2.222;2024-03-22T08:17:52;16.00;99.90
29345;DHT22;16339;48.748;2.222;2024-03-22T08:20:18;16.00;99.90
29345;DHT22;16339;48.748;2.222;2024-03-22T08:22:44;16.10;99.90
29345;DHT22;16339;48.748;2.222;2024-03-22T08:25:10;16.20;99.90
29345;DHT22;16339;48.748;2.222;2024-03-22T08:27:35;16.20;99.90
29345;DHT22;16339;48.748;2.222;2024-03-22T08:30:01;16.30;99.90
29345;DHT22;16339;48.748;2.222;2024-03-22T08:32:27;16.30;99.90
29345;DHT22;16339;48.748;2.222;2024-03-22T08:34:56;16.30;99.90
29345;DHT22;16339;48.748;2.222;2024-03-22T08:37:22;16.30;99.90
29345;DHT22;16339;48.748;2.222;2024-03-22T08:39:47;16.40;99.90
29345;DHT22;16339;48.748;2.222;2024-03-22T08:42:13;16.40;99.90
29345;DHT22;16339;48.748;2.222;2024-03-22T08:44:39;16.40;99.90
29345;DHT22;16339;48.748;2.222;2024-03-22T08:47:05;16.50;99.90
29345;DHT22;16339;48.748;2.222;2024-03-22T08:49:31;16.60;99.90
29345;DHT22;16339;48.748;2.222;2024-03-22T08:51:59;16.60;99.90
29345;DHT22;16339;48.748;2.222;2024-03-22T08:54:25;16.70;99.90
29345;DHT22;16339;48.748;2.222;2024-03-22T08:56:51;16.70;99.90
29345;DHT22;16339;48.748;2.222;2024-03-22T08:59:17;16.70;99.90
29345;DHT22;16339;48.748;2.222;2024-03-22T09:01:43;16.70;99.90
29345;DHT22;16339;48.748;2.222;2024-03-22T09:04:08;16.70;99.90
29345;DHT22;16339;48.748;2.222;2024-03-22T09:06:34;16.80;99.90
29345;DHT22;16339;48.748;2.222;2024-03-22T09:09:03;16.80;99.90
29345;DHT22;16339;48.748;2.222;2024-03-22T09:11:29;16.90;99.90
29345;DHT22;16339;48.748;2.222;2024-03-22T09:13:55;16.90;99.90
29345;DHT22;16339;48.748;2.222;2024-03-22T09:16:21;16.80;99.90
29345;DHT22;16339;48.748;2.222;2024-03-22T09:18:47;16.80;99.90
29345;DHT22;16339;48.748;2.222;2024-03-22T09:21:12;16.80;99.90
29345;DHT22;16339;48.748;2.222;2024-03-22T09:23:38;16.90;99.90
29345;DHT22;16339;48.748;2.222;2024-03-22T09:26:07;16.90;99.90
29345;DHT22;16339;48.748;2.222;2024-03-22T09:28:33;16.80;99.90
29345;DHT22;16339;48.748;2.222;2024-03-22T09:31:02;16.70;99.90
29345;DHT22;16339;48.748;2.222;2024-03-22T09:33:28;16.90;99.90
29345;DHT22;16339;48.748;2.222;2024-03-22T09:35:54;16.90;99.90
29345;DHT22;16339;48.748;2.222;2024-03-22T09:38:20;17.00;99.90
29345;DHT22;16339;48.748;2.222;2024-03-22T09:40:46;16.90;99.90
29345;DHT22;16339;48.748;2.222;2024-03-22T09:43:16;17.00;99.90
29345;DHT22;16339;48.748;2.222;2024-03-22T09:45:43;16.90;99.90
29345;DHT22;16339;48.748;2.222;2024-03-22T09:48:09;16.80;99.90
29345;DHT22;16339;48.748;2.222;2024-03-22T09:50:35;17.00;99.90
29345;DHT22;16339;48.748;2.222;2024-03-22T09:53:01;17.00;99.90
29345;DHT22;16339;48.748;2.222;2024-03-22T09:55:28;17.00;99.90
29345;DHT22;16339;48.748;2.222;2024-03-22T09:57:54;17.00;99.90
29345;DHT22;16339;48.748;2.222;2024-03-22T10:00:23;16.80;99.90
29345;DHT22;16339;48.748;2.222;2024-03-22T10:02:49;16.90;99.90
29345;DHT22;16339;48.748;2.222;2024-03-22T10:05:15;16.80;99.90
29345;DHT22;16339;48.748;2.222;2024-03-22T10:07:41;16.80;99.90
29345;DHT22;16339;48.748;2.222;2024-03-22T10:10:07;16.80;99.90
29345;DHT22;16339;48.748;2.222;2024-03-22T10:12:33;16.80;99.90
29345;DHT22;16339;48.748;2.222;2024-03-22T10:14:59;16.80;99.90
29345;DHT22;16339;48.748;2.222;2024-03-22T10:17:28;16.80;99.90
29345;DHT22;16339;48.748;2.222;2024-03-22T10:19:54;16.70;99.90
29345;DHT22;16339;48.748;2.222;2024-03-22T10:22:20;16.50;99.90
29345;DHT22;16339;48.748;2.222;2024-03-22T10:24:46;16.60;99.90
29345;DHT22;16339;48.748;2.222;2024-03-22T10:27:12;16.60;99.90
29345;DHT22;16339;48.748;2.222;2024-03-22T10:29:37;16.70;99.90
29345;DHT22;16339;48.748;2.222;2024-03-22T10:32:03;16.60;99.90
29345;DHT22;16339;48.748;2.222;2024-03-22T10:34:32;16.40;99.90
29345;DHT22;16339;48.748;2.222;2024-03-22T10:36:58;16.50;99.90
29345;DHT22;16339;48.748;2.222;2024-03-22T10:39:25;16.50;99.90
29345;DHT22;16339;48.748;2.222;2024-03-22T10:41:51;16.60;99.90
29345;DHT22;16339;48.748;2.222;2024-03-22T10:44:17;16.70;99.90
29345;DHT22;16339;48.748;2.222;2024-03-22T10:46:44;16.60;99.90
29345;DHT22;16339;48.748;2.222;2024-03-22T10:49:10;16.50;99.90
29345;DHT22;16339;48.748;2.222;2024-03-22T10:51:42;16.60;99.90
29345;DHT22;16339;48.748;2.222;2024-03-22T10:54:08;16.70;99.90
29345;DHT22;16339;48.748;2.222;2024-03-22T10:56:34;16.90;99.90
29345;DHT22;16339;48.748;2.222;2024-03-22T10:59:02;17.00;99.90
29345;DHT22;16339;48.748;2.222;2024-03-22T11:01:28;17.00;99.90
29345;DHT22;16339;48.748;2.222;2024-03-22T11:04:02;17.00;99.90
29345;DHT22;16339;48.748;2.222;2024-03-22T11:06:30;17.00;99.90
29345;DHT22;16339;48.748;2.222;2024-03-22T11:08:58;17.10;99.90
29345;DHT22;16339;48.748;2.222;2024-03-22T11:11:25;17.20;99.90
29345;DHT22;16339;48.748;2.222;2024-03-22T11:13:53;17.10;99.90
29345;DHT22;16339;48.748;2.222;2024-03-22T11:16:19;17.10;99.90
29345;DHT22;16339;48.748;2.222;2024-03-22T11:18:45;17.10;99.90
29345;DHT22;16339;48.748;2.222;2024-03-22T11:21:14;16.90;99.90
29345;DHT22;16339;48.748;2.222;2024-03-22T11:23:40;16.90;99.90
29345;DHT22;16339;48.748;2.222;2024-03-22T11:26:08;17.00;99.90
29345;DHT22;16339;48.748;2.222;2024-03-22T11:28:34;17.10;99.90
29345;DHT22;16339;48.748;2.222;2024-03-22T11:31:00;17.20;99.90
29345;DHT22;16339;48.748;2.222;2024-03-22T11:33:26;17.20;99.90
29345;DHT22;16339;48.748;2.222;2024-03-22T11:35:52;17.30;99.90
29345;DHT22;16339;48.748;2.222;2024-03-22T11:38:18;17.40;99.90
29345;DHT22;16339;48.748;2.222;2024-03-22T11:40:44;17.40;99.90
29345;DHT22;16339;48.748;2.222;2024-03-22T11:43:13;17.40;99.90
29345;DHT22;16339;48.748;2.222;2024-03-22T11:45:39;17.60;99.90
29345;DHT22;16339;48.748;2.222;2024-03-22T11:48:06;17.60;99.90
29345;DHT22;16339;48.748;2.222;2024-03-22T11:50:32;17.70;99.90
29345;DHT22;16339;48.748;2.222;2024-03-22T11:52:57;17.80;99.90
29345;DHT22;16339;48.748;2.222;2024-03-22T11:55:26;17.60;99.90
29345;DHT22;16339;48.748;2.222;2024-03-22T11:57:52;17.70;99.90
29345;DHT22;16339;48.748;2.222;2024-03-22T12:00:20;17.60;99.90
29345;DHT22;16339;48.748;2.222;2024-03-22T12:02:46;17.80;99.90
29345;DHT22;16339;48.748;2.222;2024-03-22T12:05:13;17.90;99.90
29345;DHT22;16339;48.748;2.222;2024-03-22T12:07:39;17.90;99.90
29345;DHT22;16339;48.748;2.222;2024-03-22T12:10:06;17.90;99.90
29345;DHT22;16339;48.748;2.222;2024-03-22T12:12:32;17.90;99.90
29345;DHT22;16339;48.748;2.222;2024-03-22T12:14:58;17.90;99.90
29345;DHT22;16339;48.748;2.222;2024-03-22T12:17:26;17.80;99.90
29345;DHT22;16339;48.748;2.222;2024-03-22T12:19:52;17.80;99.90
29345;DHT22;16339;48.748;2.222;2024-03-22T12:22:18;17.70;99.90
29345;DHT22;16339;48.748;2.222;2024-03-22T12:24:44;17.80;99.90
29345;DHT22;16339;48.748;2.222;2024-03-22T12:27:09;17.70;99.90
29345;DHT22;16339;48.748;2.222;2024-03-22T12:29:35;17.70;99.90
29345;DHT22;16339;48.748;2.222;2024-03-22T12:32:01;17.80;99.90
29345;DHT22;16339;48.748;2.222;2024-03-22T12:34:30;17.90;99.90
29345;DHT22;16339;48.748;2.222;2024-03-22T12:36:56;17.90;99.90
29345;DHT22;16339;48.748;2.222;2024-03-22T12:39:22;17.90;99.90
29345;DHT22;16339;48.748;2.222;2024-03-22T12:41:48;18.00;99.90
29345;DHT22;16339;48.748;2.222;2024-03-22T12:44:14;18.00;99.90
29345;DHT22;16339;48.748;2.222;2024-03-22T12:46:39;18.10;99.90
29345;DHT22;16339;48.748;2.222;2024-03-22T12:49:05;18.20;99.90
29345;DHT22;16339;48.748;2.222;2024-03-22T12:51:34;18.30;99.90
29345;DHT22;16339;48.748;2.222;2024-03-22T12:54:00;18.40;99.90
29345;DHT22;16339;48.748;2.222;2024-03-22T12:56:26;18.60;99.90
29345;DHT22;16339;48.748;2.222;2024-03-22T12:58:52;18.50;99.90
29345;DHT22;16339;48.748;2.222;2024-03-22T13:01:18;18.60;99.90
29345;DHT22;16339;48.748;2.222;2024-03-22T13:03:43;18.70;99.90
29345;DHT22;16339;48.748;2.222;2024-03-22T13:06:09;18.60;99.90
29345;DHT22;16339;48.748;2.222;2024-03-22T13:08:38;18.70;99.90
29345;DHT22;16339;48.748;2.222;2024-03-22T13:11:03;18.70;99.90
29345;DHT22;16339;48.748;2.222;2024-03-22T13:13:32;18.80;99.90
29345;DHT22;16339;48.748;2.222;2024-03-22T13:15:58;18.90;99.90
29345;DHT22;16339;48.748;2.222;2024-03-22T13:18:27;19.00;99.90
29345;DHT22;16339;48.748;2.222;2024-03-22T13:20:58;18.90;99.90
29345;DHT22;16339;48.748;2.222;2024-03-22T13:23:24;18.70;99.90
29345;DHT22;16339;48.748;2.222;2024-03-22T13:25:52;18.90;99.90
29345;DHT22;16339;48.748;2.222;2024-03-22T13:28:18;19.10;99.90
29345;DHT22;16339;48.748;2.222;2024-03-22T13:31:32;19.20;99.90
29345;DHT22;16339;48.748;2.222;2024-03-22T13:33:49;19.40;99.90
29345;DHT22;16339;48.748;2.222;2024-03-22T13:36:14;19.60;99.90
29345;DHT22;16339;48.748;2.222;2024-03-22T13:41:39;19.70;99.90
29345;DHT22;16339;48.748;2.222;2024-03-22T13:58:37;20.00;99.70
29345;DHT22;16339;48.748;2.222;2024-03-22T14:01:03;20.10;99.00
29345;DHT22;16339;48.748;2.222;2024-03-22T14:03:29;20.10;98.80
29345;DHT22;16339;48.748;2.222;2024-03-22T14:05:55;20.10;98.30
29345;DHT22;16339;48.748;2.222;2024-03-22T14:08:21;20.10;98.00
29345;DHT22;16339;48.748;2.222;2024-03-22T14:10:46;20.10;97.90
29345;DHT22;16339;48.748;2.222;2024-03-22T14:16:13;20.20;95.60
29345;DHT22;16339;48.748;2.222;2024-03-22T14:18:39;20.00;96.00
29345;DHT22;16339;48.748;2.222;2024-03-22T14:21:07;19.90;94.40
29345;DHT22;16339;48.748;2.222;2024-03-22T14:23:54;20.10;94.20
29345;DHT22;16339;48.748;2.222;2024-03-22T14:34:43;20.40;93.70
29345;DHT22;16339;48.748;2.222;2024-03-22T14:37:08;20.30;93.50
29345;DHT22;16339;48.748;2.222;2024-03-22T14:39:34;20.40;93.00
29345;DHT22;16339;48.748;2.222;2024-03-22T14:42:00;20.50;93.10
29345;DHT22;16339;48.748;2.222;2024-03-22T14:44:26;20.60;93.20
29345;DHT22;16339;48.748;2.222;2024-03-22T14:46:52;20.70;93.50
29345;DHT22;16339;48.748;2.222;2024-03-22T14:49:17;20.60;92.60
29345;DHT22;16339;48.748;2.222;2024-03-22T14:51:50;20.60;92.40
29345;DHT22;16339;48.748;2.222;2024-03-22T14:54:16;20.60;92.50
29345;DHT22;16339;48.748;2.222;2024-03-22T14:56:42;20.50;92.60
29345;DHT22;16339;48.748;2.222;2024-03-22T15:02:18;20.80;92.60
29345;DHT22;16339;48.748;2.222;2024-03-22T15:04:49;20.60;92.80
29345;DHT22;16339;48.748;2.222;2024-03-22T15:07:19;20.70;92.60
29345;DHT22;16339;48.748;2.222;2024-03-22T15:15:51;20.70;93.00
29345;DHT22;16339;48.748;2.222;2024-03-22T15:18:20;20.80;93.40
29345;DHT22;16339;48.748;2.222;2024-03-22T15:20:46;20.80;93.60
29345;DHT22;16339;48.748;2.222;2024-03-22T15:23:14;21.00;93.00
29345;DHT22;16339;48.748;2.222;2024-03-22T15:25:40;21.00;92.60
29345;DHT22;16339;48.748;2.222;2024-03-22T15:28:06;21.10;93.10
29345;DHT22;16339;48.748;2.222;2024-03-22T15:30:35;21.00;92.10
29345;DHT22;16339;48.748;2.222;2024-03-22T15:33:04;20.90;92.30
29345;DHT22;16339;48.748;2.222;2024-03-22T15:35:29;20.80;92.40
29345;DHT22;16339;48.748;2.222;2024-03-22T15:37:55;20.70;92.80
29345;DHT22;16339;48.748;2.222;2024-03-22T15:40:26;20.70;93.00
29345;DHT22;16339;48.748;2.222;2024-03-22T15:45:53;20.70;92.90
29345;DHT22;16339;48.748;2.222;2024-03-22T16:18:06;20.50;93.90
29345;DHT22;16339;48.748;2.222;2024-03-22T16:20:35;20.50;93.80
29345;DHT22;16339;48.748;2.222;2024-03-22T16:25:53;20.30;94.40
29345;DHT22;16339;48.748;2.222;2024-03-22T16:28:21;20.20;94.50
29345;DHT22;16339;48.748;2.222;2024-03-22T16:30:47;20.00;95.20
29345;DHT22;16339;48.748;2.222;2024-03-22T16:33:16;20.00;95.30
29345;DHT22;16339;48.748;2.222;2024-03-22T16:35:50;19.90;95.40
29345;DHT22;16339;48.748;2.222;2024-03-22T16:49:40;20.20;94.50
29345;DHT22;16339;48.748;2.222;2024-03-22T16:52:10;20.10;94.60
29345;DHT22;16339;48.748;2.222;2024-03-22T16:57:34;20.20;94.20
29345;DHT22;16339;48.748;2.222;2024-03-22T20:38:50;15.30;99.90
